Skip Navigation Links
NOAA logo - Click to go to the NOAA homepage
NOAA's National Weather Service
Alaska Aviation Weather Unit
  NWS logo - Click to go to the NWS homepage
Left Navbar Graphic     03 AKDT = 11 GMT

   
NOAA is celebrating 200 years of science, service, and stewardship. Visit the NOAA 200th celebration Web site to learn more.
USA.gov is the U.S. Government's official Web portal to all Federal, state and local government Web resources and services.
Facebook
NWS on Facebook

AAWU Home :: Display TAF Add Bookmark
TAF PADU 290532Z 2906/3006 02005KT P6SM BKN025
      TEMPO 2906/2908 SCT025
     FM290900 08006KT P6SM SKC=

METAR PADU 290556Z AUTO VRB03KT 10SM OVC027 M01/M06 A2980 RMK AO2 SLP093 T10061061 10011 21006 51010 FZRANO= METAR PADU 290656Z AUTO 04003KT 10SM OVC027 M01/M06 A2981 RMK AO2 SLP093 T10061061 FZRANO= METAR PADU 290756Z AUTO 28005KT 10SM BKN027 M01/M05 A2980 RMK AO2 SLP093 T10111050 400111017 FZRANO= SPECI PADU 290844Z AUTO 27007KT 10SM SCT027 M01/M05 A2980 RMK AO2 FZRANO= METAR PADU 290856Z AUTO 00000KT 10SM FEW026 M02/M06 A2980 RMK AO2 SLP092 T10171056 58000 FZRANO= SPECI PADU 290947Z AUTO 20005KT 10SM BKN026 M02/M06 A2981 RMK AO2 FZRANO= METAR PADU 290956Z AUTO 20004KT 10SM SCT026 M02/M06 A2981 RMK AO2 SLP095 T10171056 FZRANO=
 Alaska TAF Map

NOAA's National Weather Service
Alaska Aviation Weather Unit
6930 Sand Lake Road
Anchorage, AK 99502-1845
Disclaimer
Credits
Glossary
Privacy Policy
About Us
Career Opportunities
Contact AAWU Internet Services Site last modified: April, 17th 2012